sensor_id;sensor_type;location;lat;lon;timestamp;temperature;humidity
8152;DHT22;4117;53.622;9.958;2023-04-04T00:02:16;0.10;1.00
8152;DHT22;4117;53.622;9.958;2023-04-04T00:04:42;0.10;1.00
8152;DHT22;4117;53.622;9.958;2023-04-04T00:07:09;0.00;1.00
8152;DHT22;4117;53.622;9.958;2023-04-04T00:09:36;0.00;1.00
8152;DHT22;4117;53.622;9.958;2023-04-04T00:12:05;0.00;1.00
8152;DHT22;4117;53.622;9.958;2023-04-04T00:14:32;0.00;1.00
8152;DHT22;4117;53.622;9.958;2023-04-04T00:16:59;0.00;1.00
8152;DHT22;4117;53.622;9.958;2023-04-04T00:19:25;0.00;1.00
8152;DHT22;4117;53.622;9.958;2023-04-04T00:21:52;0.00;1.00
8152;DHT22;4117;53.622;9.958;2023-04-04T00:24:19;0.00;1.00
8152;DHT22;4117;53.622;9.958;2023-04-04T00:26:46;0.00;1.00
8152;DHT22;4117;53.622;9.958;2023-04-04T00:29:14;0.00;1.00
8152;DHT22;4117;53.622;9.958;2023-04-04T00:31:42;0.00;1.00
8152;DHT22;4117;53.622;9.958;2023-04-04T00:34:09;0.00;1.00
8152;DHT22;4117;53.622;9.958;2023-04-04T00:36:36;-0.10;1.00
8152;DHT22;4117;53.622;9.958;2023-04-04T00:39:02;-0.10;1.00
8152;DHT22;4117;53.622;9.958;2023-04-04T00:41:29;-0.10;1.00
8152;DHT22;4117;53.622;9.958;2023-04-04T00:43:56;-0.10;1.00
8152;DHT22;4117;53.622;9.958;2023-04-04T00:46:26;-0.20;1.00
8152;DHT22;4117;53.622;9.958;2023-04-04T00:48:54;-0.20;1.00
8152;DHT22;4117;53.622;9.958;2023-04-04T00:51:21;-0.20;1.00
8152;DHT22;4117;53.622;9.958;2023-04-04T00:53:49;-0.20;1.00
8152;DHT22;4117;53.622;9.958;2023-04-04T00:56:16;-0.20;1.00
8152;DHT22;4117;53.622;9.958;2023-04-04T00:58:43;-0.20;1.00
8152;DHT22;4117;53.622;9.958;2023-04-04T01:01:11;-0.20;1.00
8152;DHT22;4117;53.622;9.958;2023-04-04T01:03:39;-0.20;1.00
8152;DHT22;4117;53.622;9.958;2023-04-04T01:06:07;-0.20;1.00
8152;DHT22;4117;53.622;9.958;2023-04-04T01:08:35;-0.30;1.00
8152;DHT22;4117;53.622;9.958;2023-04-04T01:11:04;-0.30;1.00
8152;DHT22;4117;53.622;9.958;2023-04-04T01:13:31;-0.30;1.00
8152;DHT22;4117;53.622;9.958;2023-04-04T01:15:58;-0.30;1.00
8152;DHT22;4117;53.622;9.958;2023-04-04T01:18:26;-0.30;1.00
8152;DHT22;4117;53.622;9.958;2023-04-04T01:21:01;-0.30;1.00
8152;DHT22;4117;53.622;9.958;2023-04-04T01:23:35;-0.30;1.00
8152;DHT22;4117;53.622;9.958;2023-04-04T01:26:08;-0.30;1.00
8152;DHT22;4117;53.622;9.958;2023-04-04T01:28:35;-0.30;1.00
8152;DHT22;4117;53.622;9.958;2023-04-04T01:31:04;-0.30;1.00
8152;DHT22;4117;53.622;9.958;2023-04-04T01:33:36;-0.30;1.00
8152;DHT22;4117;53.622;9.958;2023-04-04T01:36:09;-0.40;1.00
8152;DHT22;4117;53.622;9.958;2023-04-04T01:38:41;-0.40;1.00
8152;DHT22;4117;53.622;9.958;2023-04-04T01:41:14;-0.40;1.00
8152;DHT22;4117;53.622;9.958;2023-04-04T01:43:43;-0.40;1.00
8152;DHT22;4117;53.622;9.958;2023-04-04T01:46:11;-0.40;1.00
8152;DHT22;4117;53.622;9.958;2023-04-04T01:48:38;-0.40;1.00
8152;DHT22;4117;53.622;9.958;2023-04-04T01:51:05;-0.40;1.00
8152;DHT22;4117;53.622;9.958;2023-04-04T01:53:33;-0.50;1.00
8152;DHT22;4117;53.622;9.958;2023-04-04T01:56:00;-0.50;1.00
8152;DHT22;4117;53.622;9.958;2023-04-04T01:58:29;-0.50;1.00
8152;DHT22;4117;53.622;9.958;2023-04-04T02:00:56;-0.50;1.00
8152;DHT22;4117;53.622;9.958;2023-04-04T02:03:23;-0.50;1.00
8152;DHT22;4117;53.622;9.958;2023-04-04T02:05:50;-0.50;1.00
8152;DHT22;4117;53.622;9.958;2023-04-04T02:08:17;-0.50;1.00
8152;DHT22;4117;53.622;9.958;2023-04-04T02:10:44;-0.50;1.00
8152;DHT22;4117;53.622;9.958;2023-04-04T02:13:11;-0.60;1.00
8152;DHT22;4117;53.622;9.958;2023-04-04T02:15:39;-0.60;1.00
8152;DHT22;4117;53.622;9.958;2023-04-04T02:18:06;-0.60;1.00
8152;DHT22;4117;53.622;9.958;2023-04-04T02:20:33;-0.60;1.00
8152;DHT22;4117;53.622;9.958;2023-04-04T02:22:59;-0.60;1.00
8152;DHT22;4117;53.622;9.958;2023-04-04T02:25:26;-0.60;1.00
8152;DHT22;4117;53.622;9.958;2023-04-04T02:27:53;-0.60;1.00
8152;DHT22;4117;53.622;9.958;2023-04-04T02:30:20;-0.60;1.00
8152;DHT22;4117;53.622;9.958;2023-04-04T02:32:49;-0.60;1.00
8152;DHT22;4117;53.622;9.958;2023-04-04T02:35:16;-0.60;1.00
8152;DHT22;4117;53.622;9.958;2023-04-04T02:37:44;-0.70;1.00
8152;DHT22;4117;53.622;9.958;2023-04-04T02:40:12;-0.70;1.00
8152;DHT22;4117;53.622;9.958;2023-04-04T02:42:41;-0.70;1.00
8152;DHT22;4117;53.622;9.958;2023-04-04T02:45:10;-0.70;1.00
8152;DHT22;4117;53.622;9.958;2023-04-04T02:47:39;-0.70;1.00
8152;DHT22;4117;53.622;9.958;2023-04-04T02:50:09;-0.70;1.00
8152;DHT22;4117;53.622;9.958;2023-04-04T02:52:36;-0.70;1.00
8152;DHT22;4117;53.622;9.958;2023-04-04T02:55:04;-0.70;1.00
8152;DHT22;4117;53.622;9.958;2023-04-04T02:57:31;-0.70;1.00
8152;DHT22;4117;53.622;9.958;2023-04-04T02:59:58;-0.70;1.00
8152;DHT22;4117;53.622;9.958;2023-04-04T03:02:25;-0.70;1.00
8152;DHT22;4117;53.622;9.958;2023-04-04T03:04:52;-0.70;1.00
8152;DHT22;4117;53.622;9.958;2023-04-04T03:07:20;-0.70;1.00
8152;DHT22;4117;53.622;9.958;2023-04-04T03:09:47;-0.70;1.00
8152;DHT22;4117;53.622;9.958;2023-04-04T03:12:14;-0.70;1.00
8152;DHT22;4117;53.622;9.958;2023-04-04T03:14:41;-0.70;1.00
8152;DHT22;4117;53.622;9.958;2023-04-04T03:17:08;-0.70;1.00
8152;DHT22;4117;53.622;9.958;2023-04-04T03:19:39;-0.70;1.00
8152;DHT22;4117;53.622;9.958;2023-04-04T03:22:06;-0.70;1.00
8152;DHT22;4117;53.622;9.958;2023-04-04T03:24:34;-0.70;1.00
8152;DHT22;4117;53.622;9.958;2023-04-04T03:27:02;-0.70;1.00
8152;DHT22;4117;53.622;9.958;2023-04-04T03:29:29;-0.70;1.00
8152;DHT22;4117;53.622;9.958;2023-04-04T03:31:56;-0.70;1.00
8152;DHT22;4117;53.622;9.958;2023-04-04T03:34:23;-0.80;1.00
8152;DHT22;4117;53.622;9.958;2023-04-04T03:36:51;-0.80;1.00
8152;DHT22;4117;53.622;9.958;2023-04-04T03:39:18;-0.80;1.00
8152;DHT22;4117;53.622;9.958;2023-04-04T03:41:47;-0.70;1.00
8152;DHT22;4117;53.622;9.958;2023-04-04T03:44:14;-0.70;1.00
8152;DHT22;4117;53.622;9.958;2023-04-04T03:46:43;-0.70;1.00
8152;DHT22;4117;53.622;9.958;2023-04-04T03:49:10;-0.70;1.00
8152;DHT22;4117;53.622;9.958;2023-04-04T03:51:37;-0.70;1.00
8152;DHT22;4117;53.622;9.958;2023-04-04T03:54:04;-0.70;1.00
8152;DHT22;4117;53.622;9.958;2023-04-04T03:56:31;-0.70;1.00
8152;DHT22;4117;53.622;9.958;2023-04-04T03:58:59;-0.70;1.00
8152;DHT22;4117;53.622;9.958;2023-04-04T04:01:26;-0.80;1.00
8152;DHT22;4117;53.622;9.958;2023-04-04T04:03:53;-0.70;1.00
8152;DHT22;4117;53.622;9.958;2023-04-04T04:06:20;-0.70;1.00
8152;DHT22;4117;53.622;9.958;2023-04-04T04:08:47;-0.70;1.00
8152;DHT22;4117;53.622;9.958;2023-04-04T04:11:13;-0.70;1.00
8152;DHT22;4117;53.622;9.958;2023-04-04T04:13:41;-0.80;1.00
8152;DHT22;4117;53.622;9.958;2023-04-04T04:16:09;-0.80;1.00
8152;DHT22;4117;53.622;9.958;2023-04-04T04:18:36;-0.80;1.00
8152;DHT22;4117;53.622;9.958;2023-04-04T04:21:03;-0.80;1.00
8152;DHT22;4117;53.622;9.958;2023-04-04T04:23:31;-0.80;1.00
8152;DHT22;4117;53.622;9.958;2023-04-04T04:25:58;-0.80;1.00
8152;DHT22;4117;53.622;9.958;2023-04-04T04:28:25;-0.80;1.00
8152;DHT22;4117;53.622;9.958;2023-04-04T04:30:52;-0.80;1.00
8152;DHT22;4117;53.622;9.958;2023-04-04T04:33:20;-0.80;1.00
8152;DHT22;4117;53.622;9.958;2023-04-04T04:35:57;-0.70;1.00
8152;DHT22;4117;53.622;9.958;2023-04-04T04:38:24;-0.70;1.00
8152;DHT22;4117;53.622;9.958;2023-04-04T04:40:51;-0.70;1.00
8152;DHT22;4117;53.622;9.958;2023-04-04T04:43:18;-0.70;1.00
8152;DHT22;4117;53.622;9.958;2023-04-04T04:45:45;-0.70;1.00
8152;DHT22;4117;53.622;9.958;2023-04-04T04:48:12;-0.80;1.00
8152;DHT22;4117;53.622;9.958;2023-04-04T04:50:43;-0.70;1.00
8152;DHT22;4117;53.622;9.958;2023-04-04T04:53:10;-0.80;1.00
8152;DHT22;4117;53.622;9.958;2023-04-04T04:55:37;-0.80;1.00
8152;DHT22;4117;53.622;9.958;2023-04-04T04:58:04;-0.80;1.00
8152;DHT22;4117;53.622;9.958;2023-04-04T05:00:31;-0.80;1.00
8152;DHT22;4117;53.622;9.958;2023-04-04T05:02:58;-0.80;1.00
8152;DHT22;4117;53.622;9.958;2023-04-04T05:05:26;-0.70;1.00
8152;DHT22;4117;53.622;9.958;2023-04-04T05:07:54;-0.70;1.00
8152;DHT22;4117;53.622;9.958;2023-04-04T05:10:21;-0.80;1.00
8152;DHT22;4117;53.622;9.958;2023-04-04T05:12:48;-0.70;1.00
8152;DHT22;4117;53.622;9.958;2023-04-04T05:15:15;-0.80;1.00
8152;DHT22;4117;53.622;9.958;2023-04-04T05:17:42;-0.70;1.00
8152;DHT22;4117;53.622;9.958;2023-04-04T05:20:09;-0.70;1.00
8152;DHT22;4117;53.622;9.958;2023-04-04T05:22:41;-0.60;1.00
8152;DHT22;4117;53.622;9.958;2023-04-04T05:25:10;-0.60;1.00
8152;DHT22;4117;53.622;9.958;2023-04-04T05:27:38;-0.70;1.00
8152;DHT22;4117;53.622;9.958;2023-04-04T05:30:06;-0.70;1.00
8152;DHT22;4117;53.622;9.958;2023-04-04T05:32:33;-0.70;1.00
8152;DHT22;4117;53.622;9.958;2023-04-04T05:35:01;-0.60;1.00
8152;DHT22;4117;53.622;9.958;2023-04-04T05:37:28;-0.60;1.00
8152;DHT22;4117;53.622;9.958;2023-04-04T05:39:55;-0.60;1.00
8152;DHT22;4117;53.622;9.958;2023-04-04T05:42:23;-0.60;1.00
8152;DHT22;4117;53.622;9.958;2023-04-04T05:44:50;-0.50;1.00
8152;DHT22;4117;53.622;9.958;2023-04-04T05:47:17;-0.50;1.00
8152;DHT22;4117;53.622;9.958;2023-04-04T05:49:46;-0.40;1.00
8152;DHT22;4117;53.622;9.958;2023-04-04T05:52:13;-0.40;1.00
8152;DHT22;4117;53.622;9.958;2023-04-04T05:54:40;-0.40;1.00
8152;DHT22;4117;53.622;9.958;2023-04-04T05:57:07;-0.40;1.00
8152;DHT22;4117;53.622;9.958;2023-04-04T05:59:36;-0.40;1.00
8152;DHT22;4117;53.622;9.958;2023-04-04T06:02:03;-0.30;1.00
8152;DHT22;4117;53.622;9.958;2023-04-04T06:04:32;-0.30;1.00
8152;DHT22;4117;53.622;9.958;2023-04-04T06:06:59;-0.30;1.00
8152;DHT22;4117;53.622;9.958;2023-04-04T06:09:26;-0.20;1.00
8152;DHT22;4117;53.622;9.958;2023-04-04T06:11:53;-0.20;1.00
8152;DHT22;4117;53.622;9.958;2023-04-04T06:14:20;-0.20;1.00
8152;DHT22;4117;53.622;9.958;2023-04-04T06:16:49;-0.10;1.00
8152;DHT22;4117;53.622;9.958;2023-04-04T06:19:16;0.00;1.00
8152;DHT22;4117;53.622;9.958;2023-04-04T06:21:43;0.00;1.00
8152;DHT22;4117;53.622;9.958;2023-04-04T06:24:10;0.00;1.00
8152;DHT22;4117;53.622;9.958;2023-04-04T06:26:37;0.00;1.00
8152;DHT22;4117;53.622;9.958;2023-04-04T06:29:04;0.00;1.00
8152;DHT22;4117;53.622;9.958;2023-04-04T06:31:31;0.10;1.00
8152;DHT22;4117;53.622;9.958;2023-04-04T06:33:59;0.10;1.00
8152;DHT22;4117;53.622;9.958;2023-04-04T06:36:27;0.10;1.00
8152;DHT22;4117;53.622;9.958;2023-04-04T06:38:54;0.20;1.00
8152;DHT22;4117;53.622;9.958;2023-04-04T06:41:21;0.20;1.00
8152;DHT22;4117;53.622;9.958;2023-04-04T06:43:48;0.30;1.00
8152;DHT22;4117;53.622;9.958;2023-04-04T06:46:15;0.40;1.00
8152;DHT22;4117;53.622;9.958;2023-04-04T06:48:42;0.30;1.00
8152;DHT22;4117;53.622;9.958;2023-04-04T06:51:25;0.40;1.00
8152;DHT22;4117;53.622;9.958;2023-04-04T06:53:54;0.50;1.00
8152;DHT22;4117;53.622;9.958;2023-04-04T06:56:21;0.50;1.00
8152;DHT22;4117;53.622;9.958;2023-04-04T06:58:48;0.60;1.00
8152;DHT22;4117;53.622;9.958;2023-04-04T07:01:15;0.80;1.00
8152;DHT22;4117;53.622;9.958;2023-04-04T07:03:45;1.20;1.00
8152;DHT22;4117;53.622;9.958;2023-04-04T07:06:11;1.90;1.00
8152;DHT22;4117;53.622;9.958;2023-04-04T07:08:40;2.30;1.00
8152;DHT22;4117;53.622;9.958;2023-04-04T07:11:06;3.10;1.00
8152;DHT22;4117;53.622;9.958;2023-04-04T07:13:34;3.70;1.00
8152;DHT22;4117;53.622;9.958;2023-04-04T07:16:01;4.10;1.00
8152;DHT22;4117;53.622;9.958;2023-04-04T07:18:28;4.20;1.00
8152;DHT22;4117;53.622;9.958;2023-04-04T07:20:55;4.40;1.00
8152;DHT22;4117;53.622;9.958;2023-04-04T07:23:23;4.50;1.00
8152;DHT22;4117;53.622;9.958;2023-04-04T07:25:51;4.60;1.00
8152;DHT22;4117;53.622;9.958;2023-04-04T07:28:18;4.40;1.00
8152;DHT22;4117;53.622;9.958;2023-04-04T07:30:45;4.50;1.00
8152;DHT22;4117;53.622;9.958;2023-04-04T07:33:12;4.70;1.00
8152;DHT22;4117;53.622;9.958;2023-04-04T07:35:39;4.30;1.00
8152;DHT22;4117;53.622;9.958;2023-04-04T07:38:06;4.50;1.00
8152;DHT22;4117;53.622;9.958;2023-04-04T07:40:34;4.60;1.00
8152;DHT22;4117;53.622;9.958;2023-04-04T07:43:02;4.60;1.00
8152;DHT22;4117;53.622;9.958;2023-04-04T07:45:29;4.60;1.00
8152;DHT22;4117;53.622;9.958;2023-04-04T07:47:56;4.60;1.00
8152;DHT22;4117;53.622;9.958;2023-04-04T07:50:26;4.70;1.00
8152;DHT22;4117;53.622;9.958;2023-04-04T07:52:53;4.70;1.00
8152;DHT22;4117;53.622;9.958;2023-04-04T07:55:20;4.70;1.00
8152;DHT22;4117;53.622;9.958;2023-04-04T07:57:49;4.70;1.00
8152;DHT22;4117;53.622;9.958;2023-04-04T08:00:19;4.70;1.00
8152;DHT22;4117;53.622;9.958;2023-04-04T08:02:51;4.80;1.00
8152;DHT22;4117;53.622;9.958;2023-04-04T08:05:18;4.80;1.00
8152;DHT22;4117;53.622;9.958;2023-04-04T08:07:45;4.80;1.00
8152;DHT22;4117;53.622;9.958;2023-04-04T08:10:12;4.80;1.00
8152;DHT22;4117;53.622;9.958;2023-04-04T08:12:42;4.80;1.00
8152;DHT22;4117;53.622;9.958;2023-04-04T08:15:10;4.80;1.00
8152;DHT22;4117;53.622;9.958;2023-04-04T08:17:38;4.70;1.00
8152;DHT22;4117;53.622;9.958;2023-04-04T08:20:08;4.80;1.00
8152;DHT22;4117;53.622;9.958;2023-04-04T08:22:35;4.80;1.00
8152;DHT22;4117;53.622;9.958;2023-04-04T08:25:04;5.00;1.00
8152;DHT22;4117;53.622;9.958;2023-04-04T08:27:31;5.00;1.00
8152;DHT22;4117;53.622;9.958;2023-04-04T08:29:58;5.00;1.00
8152;DHT22;4117;53.622;9.958;2023-04-04T08:32:29;4.90;1.00
8152;DHT22;4117;53.622;9.958;2023-04-04T08:34:58;5.00;1.00
8152;DHT22;4117;53.622;9.958;2023-04-04T08:37:24;5.00;1.00
8152;DHT22;4117;53.622;9.958;2023-04-04T08:39:53;4.90;1.00
8152;DHT22;4117;53.622;9.958;2023-04-04T08:42:22;5.00;1.00
8152;DHT22;4117;53.622;9.958;2023-04-04T08:44:52;4.80;1.00
8152;DHT22;4117;53.622;9.958;2023-04-04T08:47:20;4.90;1.00
8152;DHT22;4117;53.622;9.958;2023-04-04T08:49:50;4.90;1.00
8152;DHT22;4117;53.622;9.958;2023-04-04T08:52:27;4.80;1.00
8152;DHT22;4117;53.622;9.958;2023-04-04T08:54:58;4.70;1.00
8152;DHT22;4117;53.622;9.958;2023-04-04T08:57:25;4.70;1.00
8152;DHT22;4117;53.622;9.958;2023-04-04T08:59:53;4.60;1.00
8152;DHT22;4117;53.622;9.958;2023-04-04T09:02:23;4.70;1.00
8152;DHT22;4117;53.622;9.958;2023-04-04T09:04:53;4.70;1.00
8152;DHT22;4117;53.622;9.958;2023-04-04T09:07:23;4.80;1.00
8152;DHT22;4117;53.622;9.958;2023-04-04T09:09:53;4.70;1.00
8152;DHT22;4117;53.622;9.958;2023-04-04T09:12:21;4.70;1.00
8152;DHT22;4117;53.622;9.958;2023-04-04T09:14:50;4.70;1.00
8152;DHT22;4117;53.622;9.958;2023-04-04T09:17:17;4.80;1.00
8152;DHT22;4117;53.622;9.958;2023-04-04T09:19:44;4.80;1.00
8152;DHT22;4117;53.622;9.958;2023-04-04T09:22:14;4.90;1.00
8152;DHT22;4117;53.622;9.958;2023-04-04T09:24:43;4.90;1.00
8152;DHT22;4117;53.622;9.958;2023-04-04T09:27:11;4.90;1.00
8152;DHT22;4117;53.622;9.958;2023-04-04T09:29:39;4.80;1.00
8152;DHT22;4117;53.622;9.958;2023-04-04T09:32:07;4.80;1.00
8152;DHT22;4117;53.622;9.958;2023-04-04T09:34:35;4.90;1.00
8152;DHT22;4117;53.622;9.958;2023-04-04T09:37:03;5.00;1.00
8152;DHT22;4117;53.622;9.958;2023-04-04T09:39:31;5.00;1.00
8152;DHT22;4117;53.622;9.958;2023-04-04T09:42:00;5.10;1.00
8152;DHT22;4117;53.622;9.958;2023-04-04T09:44:27;5.00;1.00
8152;DHT22;4117;53.622;9.958;2023-04-04T09:47:12;5.10;1.00
8152;DHT22;4117;53.622;9.958;2023-04-04T09:49:48;5.10;1.00
8152;DHT22;4117;53.622;9.958;2023-04-04T09:52:17;5.00;1.00
8152;DHT22;4117;53.622;9.958;2023-04-04T09:54:54;5.10;1.00
8152;DHT22;4117;53.622;9.958;2023-04-04T09:57:23;5.00;1.00
8152;DHT22;4117;53.622;9.958;2023-04-04T09:59:51;5.10;1.00
8152;DHT22;4117;53.622;9.958;2023-04-04T10:02:17;5.20;1.00
8152;DHT22;4117;53.622;9.958;2023-04-04T10:04:44;5.40;1.00
8152;DHT22;4117;53.622;9.958;2023-04-04T10:07:12;5.60;1.00
8152;DHT22;4117;53.622;9.958;2023-04-04T10:09:39;5.60;1.00
8152;DHT22;4117;53.622;9.958;2023-04-04T10:12:08;5.60;1.00
8152;DHT22;4117;53.622;9.958;2023-04-04T10:14:36;5.60;1.00
8152;DHT22;4117;53.622;9.958;2023-04-04T10:17:07;5.60;1.00
8152;DHT22;4117;53.622;9.958;2023-04-04T10:19:36;5.60;1.00
8152;DHT22;4117;53.622;9.958;2023-04-04T10:22:04;5.50;1.00
8152;DHT22;4117;53.622;9.958;2023-04-04T10:24:31;5.50;1.00
8152;DHT22;4117;53.622;9.958;2023-04-04T10:26:58;5.40;1.00
8152;DHT22;4117;53.622;9.958;2023-04-04T10:29:25;5.50;1.00
8152;DHT22;4117;53.622;9.958;2023-04-04T10:32:01;5.50;1.00
8152;DHT22;4117;53.622;9.958;2023-04-04T10:34:32;5.70;1.00
8152;DHT22;4117;53.622;9.958;2023-04-04T10:37:06;5.80;1.00
8152;DHT22;4117;53.622;9.958;2023-04-04T10:39:36;5.80;1.00
8152;DHT22;4117;53.622;9.958;2023-04-04T10:42:05;6.00;1.00
8152;DHT22;4117;53.622;9.958;2023-04-04T10:44:33;5.90;1.00
8152;DHT22;4117;53.622;9.958;2023-04-04T10:47:11;5.90;1.00
8152;DHT22;4117;53.622;9.958;2023-04-04T10:49:41;6.00;1.00
8152;DHT22;4117;53.622;9.958;2023-04-04T10:52:10;6.00;1.00
8152;DHT22;4117;53.622;9.958;2023-04-04T10:54:38;6.00;1.00
8152;DHT22;4117;53.622;9.958;2023-04-04T10:57:06;6.00;1.00
8152;DHT22;4117;53.622;9.958;2023-04-04T10:59:32;6.20;1.00
8152;DHT22;4117;53.622;9.958;2023-04-04T11:02:01;6.30;1.00
8152;DHT22;4117;53.622;9.958;2023-04-04T11:04:33;6.20;1.00
8152;DHT22;4117;53.622;9.958;2023-04-04T11:07:12;6.30;1.00
8152;DHT22;4117;53.622;9.958;2023-04-04T11:09:53;6.30;1.00
8152;DHT22;4117;53.622;9.958;2023-04-04T11:12:26;6.20;1.00
8152;DHT22;4117;53.622;9.958;2023-04-04T11:14:57;6.20;1.00
8152;DHT22;4117;53.622;9.958;2023-04-04T11:17:54;6.20;1.00
8152;DHT22;4117;53.622;9.958;2023-04-04T11:20:27;6.30;1.00
8152;DHT22;4117;53.622;9.958;2023-04-04T11:23:05;6.50;1.00
8152;DHT22;4117;53.622;9.958;2023-04-04T11:25:51;6.70;1.00
8152;DHT22;4117;53.622;9.958;2023-04-04T11:28:42;6.90;1.00
8152;DHT22;4117;53.622;9.958;2023-04-04T11:31:28;7.20;1.00
8152;DHT22;4117;53.622;9.958;2023-04-04T11:33:59;7.20;1.00
8152;DHT22;4117;53.622;9.958;2023-04-04T11:36:49;7.00;1.00
8152;DHT22;4117;53.622;9.958;2023-04-04T11:39:24;7.00;1.00
8152;DHT22;4117;53.622;9.958;2023-04-04T11:41:54;7.00;1.00
8152;DHT22;4117;53.622;9.958;2023-04-04T11:44:24;7.10;1.00
8152;DHT22;4117;53.622;9.958;2023-04-04T11:46:55;7.00;1.00
8152;DHT22;4117;53.622;9.958;2023-04-04T11:49:25;7.00;1.00
8152;DHT22;4117;53.622;9.958;2023-04-04T11:51:55;7.00;1.00
8152;DHT22;4117;53.622;9.958;2023-04-04T11:54:23;7.00;1.00
8152;DHT22;4117;53.622;9.958;2023-04-04T11:56:51;7.10;1.00
8152;DHT22;4117;53.622;9.958;2023-04-04T11:59:20;7.10;1.00
8152;DHT22;4117;53.622;9.958;2023-04-04T12:01:48;7.10;1.00
8152;DHT22;4117;53.622;9.958;2023-04-04T12:04:16;7.10;1.00
8152;DHT22;4117;53.622;9.958;2023-04-04T12:06:46;7.20;1.00
8152;DHT22;4117;53.622;9.958;2023-04-04T12:09:17;7.40;1.00
8152;DHT22;4117;53.622;9.958;2023-04-04T12:11:45;7.50;1.00
8152;DHT22;4117;53.622;9.958;2023-04-04T12:14:16;7.50;1.00
8152;DHT22;4117;53.622;9.958;2023-04-04T12:16:44;7.60;1.00
8152;DHT22;4117;53.622;9.958;2023-04-04T12:19:11;7.40;1.00
8152;DHT22;4117;53.622;9.958;2023-04-04T12:21:38;7.40;1.00
8152;DHT22;4117;53.622;9.958;2023-04-04T12:24:07;7.50;1.00
8152;DHT22;4117;53.622;9.958;2023-04-04T12:26:36;7.60;1.00
8152;DHT22;4117;53.622;9.958;2023-04-04T12:29:04;7.70;1.00
8152;DHT22;4117;53.622;9.958;2023-04-04T12:31:32;7.60;1.00
8152;DHT22;4117;53.622;9.958;2023-04-04T12:33:59;7.70;1.00
8152;DHT22;4117;53.622;9.958;2023-04-04T12:36:28;7.70;1.00
8152;DHT22;4117;53.622;9.958;2023-04-04T12:38:57;7.60;1.00
8152;DHT22;4117;53.622;9.958;2023-04-04T12:41:25;7.60;1.00
8152;DHT22;4117;53.622;9.958;2023-04-04T12:44:00;7.70;1.00
8152;DHT22;4117;53.622;9.958;2023-04-04T12:46:34;7.80;1.00
8152;DHT22;4117;53.622;9.958;2023-04-04T12:49:04;7.90;1.00
8152;DHT22;4117;53.622;9.958;2023-04-04T12:51:31;7.90;1.00
8152;DHT22;4117;53.622;9.958;2023-04-04T12:53:58;7.90;1.00
8152;DHT22;4117;53.622;9.958;2023-04-04T12:56:26;8.00;1.00
8152;DHT22;4117;53.622;9.958;2023-04-04T12:59:00;8.00;1.00
8152;DHT22;4117;53.622;9.958;2023-04-04T13:01:29;8.10;1.00
8152;DHT22;4117;53.622;9.958;2023-04-04T13:03:58;8.10;1.00
8152;DHT22;4117;53.622;9.958;2023-04-04T13:06:27;8.10;1.00
8152;DHT22;4117;53.622;9.958;2023-04-04T13:08:56;8.00;1.00
8152;DHT22;4117;53.622;9.958;2023-04-04T13:11:23;8.00;1.00
8152;DHT22;4117;53.622;9.958;2023-04-04T13:14:00;8.10;1.00
8152;DHT22;4117;53.622;9.958;2023-04-04T13:16:30;8.00;1.00
8152;DHT22;4117;53.622;9.958;2023-04-04T13:18:57;8.00;1.00
8152;DHT22;4117;53.622;9.958;2023-04-04T13:21:24;8.00;1.00
8152;DHT22;4117;53.622;9.958;2023-04-04T13:23:51;8.10;1.00
8152;DHT22;4117;53.622;9.958;2023-04-04T13:26:18;8.10;1.00
8152;DHT22;4117;53.622;9.958;2023-04-04T13:28:45;8.10;1.00
8152;DHT22;4117;53.622;9.958;2023-04-04T13:31:14;8.00;1.00
8152;DHT22;4117;53.622;9.958;2023-04-04T13:33:41;8.00;1.00
8152;DHT22;4117;53.622;9.958;2023-04-04T13:36:08;8.10;1.00
8152;DHT22;4117;53.622;9.958;2023-04-04T13:38:35;8.20;1.00
8152;DHT22;4117;53.622;9.958;2023-04-04T13:41:02;8.10;1.00
8152;DHT22;4117;53.622;9.958;2023-04-04T13:43:29;8.10;1.00
8152;DHT22;4117;53.622;9.958;2023-04-04T13:45:56;8.20;1.00
8152;DHT22;4117;53.622;9.958;2023-04-04T13:48:24;8.20;1.00
8152;DHT22;4117;53.622;9.958;2023-04-04T13:50:52;8.30;1.00
8152;DHT22;4117;53.622;9.958;2023-04-04T13:53:19;8.40;1.00
8152;DHT22;4117;53.622;9.958;2023-04-04T13:55:46;8.40;1.00
8152;DHT22;4117;53.622;9.958;2023-04-04T13:58:13;8.40;1.00
8152;DHT22;4117;53.622;9.958;2023-04-04T14:00:45;8.30;1.00
8152;DHT22;4117;53.622;9.958;2023-04-04T14:03:12;8.30;1.00
8152;DHT22;4117;53.622;9.958;2023-04-04T14:05:42;8.30;1.00
8152;DHT22;4117;53.622;9.958;2023-04-04T14:08:09;8.40;1.00
8152;DHT22;4117;53.622;9.958;2023-04-04T14:10:36;8.30;1.00
8152;DHT22;4117;53.622;9.958;2023-04-04T14:13:03;8.30;1.00
8152;DHT22;4117;53.622;9.958;2023-04-04T14:15:30;8.30;1.00
8152;DHT22;4117;53.622;9.958;2023-04-04T14:17:57;8.30;1.00
8152;DHT22;4117;53.622;9.958;2023-04-04T14:20:24;8.40;1.00
8152;DHT22;4117;53.622;9.958;2023-04-04T14:22:52;8.40;1.00
8152;DHT22;4117;53.622;9.958;2023-04-04T14:25:20;8.50;1.00
8152;DHT22;4117;53.622;9.958;2023-04-04T14:27:47;8.30;1.00
8152;DHT22;4117;53.622;9.958;2023-04-04T14:30:15;8.30;1.00
8152;DHT22;4117;53.622;9.958;2023-04-04T14:32:41;8.50;1.00
8152;DHT22;4117;53.622;9.958;2023-04-04T14:35:09;8.60;1.00
8152;DHT22;4117;53.622;9.958;2023-04-04T14:37:36;8.60;1.00
8152;DHT22;4117;53.622;9.958;2023-04-04T14:40:05;8.70;1.00
8152;DHT22;4117;53.622;9.958;2023-04-04T14:42:32;8.90;1.00
8152;DHT22;4117;53.622;9.958;2023-04-04T14:44:59;8.90;1.00
8152;DHT22;4117;53.622;9.958;2023-04-04T14:47:32;8.80;1.00
8152;DHT22;4117;53.622;9.958;2023-04-04T14:49:59;8.80;1.00
8152;DHT22;4117;53.622;9.958;2023-04-04T14:52:26;8.80;1.00
8152;DHT22;4117;53.622;9.958;2023-04-04T14:54:54;8.90;1.00
8152;DHT22;4117;53.622;9.958;2023-04-04T14:57:23;8.90;1.00
8152;DHT22;4117;53.622;9.958;2023-04-04T14:59:50;8.80;1.00
8152;DHT22;4117;53.622;9.958;2023-04-04T15:02:17;8.90;1.00
8152;DHT22;4117;53.622;9.958;2023-04-04T15:04:44;9.10;1.00
8152;DHT22;4117;53.622;9.958;2023-04-04T15:07:11;9.20;1.00
8152;DHT22;4117;53.622;9.958;2023-04-04T15:09:38;9.20;1.00
8152;DHT22;4117;53.622;9.958;2023-04-04T15:12:05;9.10;1.00
8152;DHT22;4117;53.622;9.958;2023-04-04T15:14:33;9.30;1.00
8152;DHT22;4117;53.622;9.958;2023-04-04T15:17:01;9.40;1.00
8152;DHT22;4117;53.622;9.958;2023-04-04T15:19:27;9.40;1.00
8152;DHT22;4117;53.622;9.958;2023-04-04T15:21:55;9.20;1.00
8152;DHT22;4117;53.622;9.958;2023-04-04T15:24:22;9.00;1.00
8152;DHT22;4117;53.622;9.958;2023-04-04T15:26:49;9.00;1.00
8152;DHT22;4117;53.622;9.958;2023-04-04T15:29:16;9.00;1.00
8152;DHT22;4117;53.622;9.958;2023-04-04T15:31:44;8.90;1.00
8152;DHT22;4117;53.622;9.958;2023-04-04T15:34:12;8.90;1.00
8152;DHT22;4117;53.622;9.958;2023-04-04T15:36:39;8.80;1.00
8152;DHT22;4117;53.622;9.958;2023-04-04T15:39:07;8.90;1.00
8152;DHT22;4117;53.622;9.958;2023-04-04T15:41:35;8.90;1.00
8152;DHT22;4117;53.622;9.958;2023-04-04T15:44:02;8.90;1.00
8152;DHT22;4117;53.622;9.958;2023-04-04T15:46:30;8.80;1.00
8152;DHT22;4117;53.622;9.958;2023-04-04T15:48:58;8.80;1.00
8152;DHT22;4117;53.622;9.958;2023-04-04T15:51:25;8.90;1.00
8152;DHT22;4117;53.622;9.958;2023-04-04T15:53:53;8.70;1.00
8152;DHT22;4117;53.622;9.958;2023-04-04T15:56:20;8.60;1.00
8152;DHT22;4117;53.622;9.958;2023-04-04T15:58:47;8.50;1.00
8152;DHT22;4117;53.622;9.958;2023-04-04T16:01:14;8.50;1.00
8152;DHT22;4117;53.622;9.958;2023-04-04T16:03:42;8.50;1.00
8152;DHT22;4117;53.622;9.958;2023-04-04T16:06:10;8.50;1.00
8152;DHT22;4117;53.622;9.958;2023-04-04T16:08:37;8.20;1.00
8152;DHT22;4117;53.622;9.958;2023-04-04T16:11:05;8.20;1.00
8152;DHT22;4117;53.622;9.958;2023-04-04T16:13:32;8.30;1.00
8152;DHT22;4117;53.622;9.958;2023-04-04T16:15:59;8.30;1.00
8152;DHT22;4117;53.622;9.958;2023-04-04T16:18:26;8.20;1.00
8152;DHT22;4117;53.622;9.958;2023-04-04T16:20:54;8.20;1.00
8152;DHT22;4117;53.622;9.958;2023-04-04T16:23:22;8.10;1.00
8152;DHT22;4117;53.622;9.958;2023-04-04T16:25:49;8.10;1.00
8152;DHT22;4117;53.622;9.958;2023-04-04T16:28:16;8.10;1.00
8152;DHT22;4117;53.622;9.958;2023-04-04T16:30:43;8.10;1.00
8152;DHT22;4117;53.622;9.958;2023-04-04T16:33:10;8.00;1.00
8152;DHT22;4117;53.622;9.958;2023-04-04T16:35:36;7.90;1.00
8152;DHT22;4117;53.622;9.958;2023-04-04T16:38:04;7.80;1.00